sensor_id;sensor_type;location;lat;lon;timestamp;pressure;altitude;pressure_sealevel;temperature;humidity
36380;BME280;22411;53.016;18.632;2023-04-22T00:02:06;100858.94;;;7.64;100.00
36380;BME280;22411;53.016;18.632;2023-04-22T00:04:32;100855.63;;;7.62;100.00
36380;BME280;22411;53.016;18.632;2023-04-22T00:06:59;100854.88;;;7.59;100.00
36380;BME280;22411;53.016;18.632;2023-04-22T00:09:25;100848.03;;;7.58;100.00
36380;BME280;22411;53.016;18.632;2023-04-22T00:11:52;100843.84;;;7.56;100.00
36380;BME280;22411;53.016;18.632;2023-04-22T00:14:18;100841.50;;;7.51;100.00
36380;BME280;22411;53.016;18.632;2023-04-22T00:16:44;100843.47;;;7.46;100.00
36380;BME280;22411;53.016;18.632;2023-04-22T00:19:10;100840.22;;;7.43;100.00
36380;BME280;22411;53.016;18.632;2023-04-22T00:21:37;100841.22;;;7.40;100.00
36380;BME280;22411;53.016;18.632;2023-04-22T00:24:03;100829.38;;;7.36;100.00
36380;BME280;22411;53.016;18.632;2023-04-22T00:26:31;100833.78;;;7.34;100.00
36380;BME280;22411;53.016;18.632;2023-04-22T00:28:56;100830.53;;;7.30;100.00
36380;BME280;22411;53.016;18.632;2023-04-22T00:31:23;100832.50;;;7.25;100.00
36380;BME280;22411;53.016;18.632;2023-04-22T00:33:48;100829.09;;;7.25;100.00
36380;BME280;22411;53.016;18.632;2023-04-22T00:36:15;100825.81;;;7.21;100.00
36380;BME280;22411;53.016;18.632;2023-04-22T00:38:46;100825.19;;;7.16;100.00
36380;BME280;22411;53.016;18.632;2023-04-22T00:41:13;100817.94;;;7.07;100.00
36380;BME280;22411;53.016;18.632;2023-04-22T00:43:39;100821.41;;;7.06;100.00
36380;BME280;22411;53.016;18.632;2023-04-22T00:46:07;100818.78;;;7.07;100.00
36380;BME280;22411;53.016;18.632;2023-04-22T00:48:36;100815.50;;;7.04;100.00
36380;BME280;22411;53.016;18.632;2023-04-22T00:51:04;100819.06;;;7.01;100.00
36380;BME280;22411;53.016;18.632;2023-04-22T00:53:30;100814.81;;;7.00;100.00
36380;BME280;22411;53.016;18.632;2023-04-22T00:55:57;100813.31;;;6.96;100.00
36380;BME280;22411;53.016;18.632;2023-04-22T00:58:28;100816.75;;;6.95;100.00
36380;BME280;22411;53.016;18.632;2023-04-22T01:00:55;100814.44;;;6.91;100.00
36380;BME280;22411;53.016;18.632;2023-04-22T01:03:22;100808.66;;;6.86;100.00
36380;BME280;22411;53.016;18.632;2023-04-22T01:05:53;100810.47;;;6.84;100.00
36380;BME280;22411;53.016;18.632;2023-04-22T01:08:19;100807.13;;;6.81;100.00
36380;BME280;22411;53.016;18.632;2023-04-22T01:10:47;100813.22;;;6.80;100.00
36380;BME280;22411;53.016;18.632;2023-04-22T01:13:13;100806.53;;;6.76;100.00
36380;BME280;22411;53.016;18.632;2023-04-22T01:15:41;100816.00;;;6.76;100.00
36380;BME280;22411;53.016;18.632;2023-04-22T01:18:07;100812.03;;;6.69;100.00
36380;BME280;22411;53.016;18.632;2023-04-22T01:20:33;100813.94;;;6.65;100.00
36380;BME280;22411;53.016;18.632;2023-04-22T01:23:02;100805.63;;;6.59;100.00
36380;BME280;22411;53.016;18.632;2023-04-22T01:25:34;100814.44;;;6.54;100.00
36380;BME280;22411;53.016;18.632;2023-04-22T01:28:01;100821.34;;;6.54;100.00
36380;BME280;22411;53.016;18.632;2023-04-22T01:30:31;100815.28;;;6.55;100.00
36380;BME280;22411;53.016;18.632;2023-04-22T01:32:57;100815.28;;;6.55;100.00
36380;BME280;22411;53.016;18.632;2023-04-22T01:35:24;100821.47;;;6.51;100.00
36380;BME280;22411;53.016;18.632;2023-04-22T01:37:50;100811.44;;;6.45;100.00
36380;BME280;22411;53.016;18.632;2023-04-22T01:40:18;100807.34;;;6.41;100.00
36380;BME280;22411;53.016;18.632;2023-04-22T01:42:47;100799.69;;;6.39;100.00
36380;BME280;22411;53.016;18.632;2023-04-22T01:45:13;100803.09;;;6.40;100.00
36380;BME280;22411;53.016;18.632;2023-04-22T01:47:42;100800.66;;;6.37;100.00
36380;BME280;22411;53.016;18.632;2023-04-22T01:50:09;100799.91;;;6.35;100.00
36380;BME280;22411;53.016;18.632;2023-04-22T01:52:35;100803.53;;;6.31;100.00
36380;BME280;22411;53.016;18.632;2023-04-22T01:55:04;100802.75;;;6.28;100.00
36380;BME280;22411;53.016;18.632;2023-04-22T01:57:30;100800.31;;;6.25;100.00
36380;BME280;22411;53.016;18.632;2023-04-22T01:59:56;100802.19;;;6.22;100.00
36380;BME280;22411;53.016;18.632;2023-04-22T02:02:23;100804.84;;;6.20;100.00
36380;BME280;22411;53.016;18.632;2023-04-22T02:04:49;100797.19;;;6.19;100.00
36380;BME280;22411;53.016;18.632;2023-04-22T02:07:15;100800.69;;;6.18;100.00
36380;BME280;22411;53.016;18.632;2023-04-22T02:09:41;100798.97;;;6.17;100.00
36380;BME280;22411;53.016;18.632;2023-04-22T02:12:07;100798.22;;;6.15;100.00
36380;BME280;22411;53.016;18.632;2023-04-22T02:14:33;100799.28;;;6.11;100.00
36380;BME280;22411;53.016;18.632;2023-04-22T02:16:59;100805.31;;;6.10;100.00
36380;BME280;22411;53.016;18.632;2023-04-22T02:19:27;100803.78;;;6.06;100.00
36380;BME280;22411;53.016;18.632;2023-04-22T02:21:53;100797.97;;;6.02;100.00
36380;BME280;22411;53.016;18.632;2023-04-22T02:24:22;100798.91;;;5.99;100.00
36380;BME280;22411;53.016;18.632;2023-04-22T02:26:48;100796.41;;;5.98;100.00
36380;BME280;22411;53.016;18.632;2023-04-22T02:29:17;100806.00;;;5.94;100.00
36380;BME280;22411;53.016;18.632;2023-04-22T02:31:43;100807.75;;;5.94;100.00
36380;BME280;22411;53.016;18.632;2023-04-22T02:34:09;100802.69;;;5.92;100.00
36380;BME280;22411;53.016;18.632;2023-04-22T02:36:35;100800.19;;;5.89;100.00
36380;BME280;22411;53.016;18.632;2023-04-22T02:39:01;100795.13;;;5.88;100.00
36380;BME280;22411;53.016;18.632;2023-04-22T02:41:34;100799.44;;;5.87;100.00
36380;BME280;22411;53.016;18.632;2023-04-22T02:44:01;100790.09;;;5.85;100.00
36380;BME280;22411;53.016;18.632;2023-04-22T02:46:28;100797.81;;;5.85;100.00
36380;BME280;22411;53.016;18.632;2023-04-22T02:48:54;100802.28;;;5.81;100.00
36380;BME280;22411;53.016;18.632;2023-04-22T02:51:21;100801.66;;;5.76;100.00
36380;BME280;22411;53.016;18.632;2023-04-22T02:53:49;100797.47;;;5.73;100.00
36380;BME280;22411;53.016;18.632;2023-04-22T02:56:15;100797.53;;;5.72;100.00
36380;BME280;22411;53.016;18.632;2023-04-22T02:58:41;100804.50;;;5.70;100.00
36380;BME280;22411;53.016;18.632;2023-04-22T03:01:08;100800.38;;;5.66;100.00
36380;BME280;22411;53.016;18.632;2023-04-22T03:03:34;100801.34;;;5.63;100.00
36380;BME280;22411;53.016;18.632;2023-04-22T03:06:00;100801.34;;;5.63;100.00
36380;BME280;22411;53.016;18.632;2023-04-22T03:08:26;100796.25;;;5.62;100.00
36380;BME280;22411;53.016;18.632;2023-04-22T03:10:52;100792.84;;;5.61;100.00
36380;BME280;22411;53.016;18.632;2023-04-22T03:13:20;100798.19;;;5.57;100.00
36380;BME280;22411;53.016;18.632;2023-04-22T03:15:46;100800.84;;;5.55;100.00
36380;BME280;22411;53.016;18.632;2023-04-22T03:18:12;100804.44;;;5.51;100.00
36380;BME280;22411;53.016;18.632;2023-04-22T03:20:38;100812.25;;;5.48;100.00
36380;BME280;22411;53.016;18.632;2023-04-22T03:23:04;100812.25;;;5.48;100.00
36380;BME280;22411;53.016;18.632;2023-04-22T03:25:32;100802.88;;;5.47;100.00
36380;BME280;22411;53.016;18.632;2023-04-22T03:27:58;100801.16;;;5.47;100.00
36380;BME280;22411;53.016;18.632;2023-04-22T03:30:24;100803.03;;;5.44;100.00
36380;BME280;22411;53.016;18.632;2023-04-22T03:32:51;100802.31;;;5.40;100.00
36380;BME280;22411;53.016;18.632;2023-04-22T03:35:18;100799.94;;;5.36;100.00
36380;BME280;22411;53.016;18.632;2023-04-22T03:37:45;100796.53;;;5.35;100.00
36380;BME280;22411;53.016;18.632;2023-04-22T03:40:11;100793.13;;;5.35;100.00
36380;BME280;22411;53.016;18.632;2023-04-22T03:42:37;100794.09;;;5.32;100.00
36380;BME280;22411;53.016;18.632;2023-04-22T03:45:04;100796.63;;;5.34;100.00
36380;BME280;22411;53.016;18.632;2023-04-22T03:47:30;100792.41;;;5.31;100.00
36380;BME280;22411;53.016;18.632;2023-04-22T03:49:57;100795.00;;;5.31;100.00
36380;BME280;22411;53.016;18.632;2023-04-22T03:52:23;100792.38;;;5.33;100.00
36380;BME280;22411;53.016;18.632;2023-04-22T03:54:49;100796.53;;;5.35;100.00
36380;BME280;22411;53.016;18.632;2023-04-22T03:57:15;100800.78;;;5.36;100.00
36380;BME280;22411;53.016;18.632;2023-04-22T03:59:41;100794.03;;;5.34;100.00
36380;BME280;22411;53.016;18.632;2023-04-22T04:02:07;100791.97;;;5.42;100.00
36380;BME280;22411;53.016;18.632;2023-04-22T04:04:33;100798.66;;;5.46;100.00
36380;BME280;22411;53.016;18.632;2023-04-22T04:07:02;100798.66;;;5.46;100.00
36380;BME280;22411;53.016;18.632;2023-04-22T04:09:28;100795.19;;;5.47;100.00
36380;BME280;22411;53.016;18.632;2023-04-22T04:11:55;100791.78;;;5.46;100.00
36380;BME280;22411;53.016;18.632;2023-04-22T04:14:21;100801.16;;;5.47;100.00
36380;BME280;22411;53.016;18.632;2023-04-22T04:16:47;100794.28;;;5.48;100.00
36380;BME280;22411;53.016;18.632;2023-04-22T04:19:14;100791.59;;;5.51;100.00
36380;BME280;22411;53.016;18.632;2023-04-22T04:21:41;100790.56;;;5.55;100.00
36380;BME280;22411;53.016;18.632;2023-04-22T04:24:07;100789.53;;;5.59;100.00
36380;BME280;22411;53.016;18.632;2023-04-22T04:26:33;100792.09;;;5.59;100.00
36380;BME280;22411;53.016;18.632;2023-04-22T04:28:59;100788.44;;;5.65;100.00
36380;BME280;22411;53.016;18.632;2023-04-22T04:31:28;100791.63;;;5.70;100.00
36380;BME280;22411;53.016;18.632;2023-04-22T04:33:54;100796.63;;;5.73;100.00
36380;BME280;22411;53.016;18.632;2023-04-22T04:36:23;100793.03;;;5.77;100.00
36380;BME280;22411;53.016;18.632;2023-04-22T04:38:54;100784.31;;;5.80;100.00
36380;BME280;22411;53.016;18.632;2023-04-22T04:41:21;100792.63;;;5.86;100.00
36380;BME280;22411;53.016;18.632;2023-04-22T04:43:48;100789.00;;;5.90;100.00
36380;BME280;22411;53.016;18.632;2023-04-22T04:46:15;100789.63;;;5.97;100.00
36380;BME280;22411;53.016;18.632;2023-04-22T04:48:41;100794.47;;;6.03;100.00
36380;BME280;22411;53.016;18.632;2023-04-22T04:51:08;100793.28;;;6.10;100.00
36380;BME280;22411;53.016;18.632;2023-04-22T04:53:35;100796.41;;;6.17;100.00
36380;BME280;22411;53.016;18.632;2023-04-22T04:56:01;100798.66;;;6.24;100.00
36380;BME280;22411;53.016;18.632;2023-04-22T04:58:27;100794.06;;;6.31;100.00
36380;BME280;22411;53.016;18.632;2023-04-22T05:00:53;100788.69;;;6.36;100.00
36380;BME280;22411;53.016;18.632;2023-04-22T05:03:19;100787.50;;;6.43;100.00
36380;BME280;22411;53.016;18.632;2023-04-22T05:05:46;100791.47;;;6.50;100.00
36380;BME280;22411;53.016;18.632;2023-04-22T05:08:13;100791.94;;;6.58;100.00
36380;BME280;22411;53.016;18.632;2023-04-22T05:10:40;100796.66;;;6.67;100.00
36380;BME280;22411;53.016;18.632;2023-04-22T05:13:07;100790.28;;;6.74;100.00
36380;BME280;22411;53.016;18.632;2023-04-22T05:15:35;100795.91;;;6.82;100.00
36380;BME280;22411;53.016;18.632;2023-04-22T05:18:03;100796.31;;;6.92;100.00
36380;BME280;22411;53.016;18.632;2023-04-22T05:20:29;100795.78;;;7.03;100.00
36380;BME280;22411;53.016;18.632;2023-04-22T05:22:55;100795.19;;;7.15;100.00
36380;BME280;22411;53.016;18.632;2023-04-22T05:25:22;100793.06;;;7.23;100.00
36380;BME280;22411;53.016;18.632;2023-04-22T05:27:48;100792.66;;;7.31;100.00
36380;BME280;22411;53.016;18.632;2023-04-22T05:30:14;100792.97;;;7.42;100.00
36380;BME280;22411;53.016;18.632;2023-04-22T05:32:40;100792.50;;;7.51;100.00
36380;BME280;22411;53.016;18.632;2023-04-22T05:35:08;100790.19;;;7.63;100.00
36380;BME280;22411;53.016;18.632;2023-04-22T05:37:34;100790.47;;;7.74;100.00
36380;BME280;22411;53.016;18.632;2023-04-22T05:40:01;100795.31;;;7.80;100.00
36380;BME280;22411;53.016;18.632;2023-04-22T05:42:26;100794.75;;;7.91;100.00
36380;BME280;22411;53.016;18.632;2023-04-22T05:44:53;100789.88;;;8.02;100.00
36380;BME280;22411;53.016;18.632;2023-04-22T05:47:20;100794.53;;;8.11;100.00
36380;BME280;22411;53.016;18.632;2023-04-22T05:49:46;100786.31;;;8.20;100.00
36380;BME280;22411;53.016;18.632;2023-04-22T05:52:12;100784.22;;;8.27;100.00
36380;BME280;22411;53.016;18.632;2023-04-22T05:54:42;100784.63;;;8.35;100.00
36380;BME280;22411;53.016;18.632;2023-04-22T05:57:09;100791.09;;;8.44;100.00
36380;BME280;22411;53.016;18.632;2023-04-22T05:59:36;100787.16;;;8.52;100.00
36380;BME280;22411;53.016;18.632;2023-04-22T06:02:02;100779.72;;;8.62;100.00
36380;BME280;22411;53.016;18.632;2023-04-22T06:04:28;100787.72;;;8.73;100.00
36380;BME280;22411;53.016;18.632;2023-04-22T06:06:55;100787.09;;;8.84;100.00
36380;BME280;22411;53.016;18.632;2023-04-22T06:09:21;100784.00;;;8.93;100.00
36380;BME280;22411;53.016;18.632;2023-04-22T06:11:48;100781.72;;;9.03;100.00
36380;BME280;22411;53.016;18.632;2023-04-22T06:14:15;100781.00;;;9.15;100.00
36380;BME280;22411;53.016;18.632;2023-04-22T06:16:42;100782.88;;;9.27;100.00
36380;BME280;22411;53.016;18.632;2023-04-22T06:19:12;100769.16;;;9.41;100.00
36380;BME280;22411;53.016;18.632;2023-04-22T06:21:43;100773.78;;;9.50;100.00
36380;BME280;22411;53.016;18.632;2023-04-22T06:24:12;100776.44;;;9.63;100.00
36380;BME280;22411;53.016;18.632;2023-04-22T06:26:38;100771.28;;;9.77;100.00
36380;BME280;22411;53.016;18.632;2023-04-22T06:29:04;100769.81;;;9.87;100.00
36380;BME280;22411;53.016;18.632;2023-04-22T06:31:30;100771.44;;;10.03;100.00
36380;BME280;22411;53.016;18.632;2023-04-22T06:33:57;100773.91;;;10.18;100.00
36380;BME280;22411;53.016;18.632;2023-04-22T06:36:24;100780.78;;;10.34;100.00
36380;BME280;22411;53.016;18.632;2023-04-22T06:38:51;100774.59;;;10.49;100.00
36380;BME280;22411;53.016;18.632;2023-04-22T06:41:18;100778.91;;;10.63;100.00
36380;BME280;22411;53.016;18.632;2023-04-22T06:43:44;100769.41;;;10.76;100.00
36380;BME280;22411;53.016;18.632;2023-04-22T06:46:10;100767.66;;;10.89;100.00
36380;BME280;22411;53.016;18.632;2023-04-22T06:48:37;100773.72;;;11.03;100.00
36380;BME280;22411;53.016;18.632;2023-04-22T06:51:03;100769.59;;;11.13;100.00
36380;BME280;22411;53.016;18.632;2023-04-22T06:53:29;100773.31;;;11.21;100.00
36380;BME280;22411;53.016;18.632;2023-04-22T06:55:55;100759.63;;;11.32;100.00
36380;BME280;22411;53.016;18.632;2023-04-22T06:58:22;100776.56;;;11.50;100.00
36380;BME280;22411;53.016;18.632;2023-04-22T07:00:48;100770.09;;;11.69;100.00
36380;BME280;22411;53.016;18.632;2023-04-22T07:03:15;100774.69;;;11.78;100.00
36380;BME280;22411;53.016;18.632;2023-04-22T07:05:42;100775.63;;;11.90;100.00
36380;BME280;22411;53.016;18.632;2023-04-22T07:08:08;100774.88;;;12.00;100.00
36380;BME280;22411;53.016;18.632;2023-04-22T07:10:34;100769.75;;;12.12;100.00
36380;BME280;22411;53.016;18.632;2023-04-22T07:13:00;100768.47;;;12.30;100.00
36380;BME280;22411;53.016;18.632;2023-04-22T07:15:26;100774.53;;;12.42;100.00
36380;BME280;22411;53.016;18.632;2023-04-22T07:17:53;100768.69;;;12.51;100.00
36380;BME280;22411;53.016;18.632;2023-04-22T07:20:19;100772.88;;;12.65;100.00
36380;BME280;22411;53.016;18.632;2023-04-22T07:22:47;100784.38;;;12.73;100.00
36380;BME280;22411;53.016;18.632;2023-04-22T07:25:14;100779.09;;;12.86;100.00
36380;BME280;22411;53.016;18.632;2023-04-22T07:27:40;100776.94;;;13.04;100.00
36380;BME280;22411;53.016;18.632;2023-04-22T07:30:06;100781.22;;;13.16;100.00
36380;BME280;22411;53.016;18.632;2023-04-22T07:32:33;100776.19;;;13.26;100.00
36380;BME280;22411;53.016;18.632;2023-04-22T07:35:01;100777.75;;;13.40;100.00
36380;BME280;22411;53.016;18.632;2023-04-22T07:37:28;100772.66;;;13.49;100.00
36380;BME280;22411;53.016;18.632;2023-04-22T07:39:54;100779.63;;;13.60;100.00
36380;BME280;22411;53.016;18.632;2023-04-22T07:42:21;100773.38;;;13.74;100.00
36380;BME280;22411;53.016;18.632;2023-04-22T07:44:47;100774.09;;;13.87;100.00
36380;BME280;22411;53.016;18.632;2023-04-22T07:47:14;100783.31;;;14.02;99.75
36380;BME280;22411;53.016;18.632;2023-04-22T07:49:40;100775.94;;;14.07;94.45
36380;BME280;22411;53.016;18.632;2023-04-22T07:52:08;100778.66;;;14.17;95.63
36380;BME280;22411;53.016;18.632;2023-04-22T07:54:34;100769.16;;;14.27;93.52
36380;BME280;22411;53.016;18.632;2023-04-22T07:57:03;100773.53;;;14.38;90.94
36380;BME280;22411;53.016;18.632;2023-04-22T07:59:33;100770.69;;;14.52;89.50
36380;BME280;22411;53.016;18.632;2023-04-22T08:01:59;100777.41;;;14.66;85.45
36380;BME280;22411;53.016;18.632;2023-04-22T08:04:25;100777.25;;;14.68;83.06
36380;BME280;22411;53.016;18.632;2023-04-22T08:06:52;100773.31;;;14.73;81.88
36380;BME280;22411;53.016;18.632;2023-04-22T08:09:22;100769.47;;;14.88;78.88
36380;BME280;22411;53.016;18.632;2023-04-22T08:11:48;100768.72;;;14.98;75.87
36380;BME280;22411;53.016;18.632;2023-04-22T08:14:14;100769.72;;;15.06;72.07
36380;BME280;22411;53.016;18.632;2023-04-22T08:16:41;100771.94;;;15.11;70.11
36380;BME280;22411;53.016;18.632;2023-04-22T08:19:11;100771.31;;;15.19;71.36
36380;BME280;22411;53.016;18.632;2023-04-22T08:21:42;100770.59;;;15.37;72.69
36380;BME280;22411;53.016;18.632;2023-04-22T08:24:11;100766.50;;;15.65;70.26
36380;BME280;22411;53.016;18.632;2023-04-22T08:26:37;100773.00;;;15.81;69.80
36380;BME280;22411;53.016;18.632;2023-04-22T08:29:04;100772.25;;;16.00;68.11
36380;BME280;22411;53.016;18.632;2023-04-22T08:31:32;100772.19;;;16.20;66.16
36380;BME280;22411;53.016;18.632;2023-04-22T08:33:59;100769.59;;;16.40;63.09
36380;BME280;22411;53.016;18.632;2023-04-22T08:36:25;100772.78;;;16.53;60.09
36380;BME280;22411;53.016;18.632;2023-04-22T08:38:52;100775.53;;;16.71;59.01
36380;BME280;22411;53.016;18.632;2023-04-22T08:41:21;100771.03;;;16.73;57.02
36380;BME280;22411;53.016;18.632;2023-04-22T08:43:47;100768.09;;;16.86;58.01
36380;BME280;22411;53.016;18.632;2023-04-22T08:46:16;100771.13;;;17.10;55.94
36380;BME280;22411;53.016;18.632;2023-04-22T08:48:47;100769.53;;;17.37;54.43
36380;BME280;22411;53.016;18.632;2023-04-22T08:51:15;100770.84;;;17.60;51.55
36380;BME280;22411;53.016;18.632;2023-04-22T08:53:45;100769.81;;;17.81;51.54
36380;BME280;22411;53.016;18.632;2023-04-22T08:56:12;100768.31;;;18.06;50.12
36380;BME280;22411;53.016;18.632;2023-04-22T08:58:41;100766.16;;;18.19;51.40
36380;BME280;22411;53.016;18.632;2023-04-22T09:01:08;100766.63;;;18.50;53.22
36380;BME280;22411;53.016;18.632;2023-04-22T09:03:38;100760.38;;;18.78;51.25
36380;BME280;22411;53.016;18.632;2023-04-22T09:06:06;100764.34;;;18.83;48.53
36380;BME280;22411;53.016;18.632;2023-04-22T09:08:35;100767.00;;;18.91;47.47
36380;BME280;22411;53.016;18.632;2023-04-22T09:11:03;100766.09;;;19.00;46.30
36380;BME280;22411;53.016;18.632;2023-04-22T09:13:29;100760.63;;;19.19;45.90
36380;BME280;22411;53.016;18.632;2023-04-22T09:15:56;100764.16;;;19.28;45.59
36380;BME280;22411;53.016;18.632;2023-04-22T09:18:23;100758.06;;;19.27;44.46
36380;BME280;22411;53.016;18.632;2023-04-22T09:20:54;100760.19;;;19.24;44.27
36380;BME280;22411;53.016;18.632;2023-04-22T09:23:21;100748.00;;;19.49;44.03
36380;BME280;22411;53.016;18.632;2023-04-22T09:25:48;100757.72;;;19.82;43.52
36380;BME280;22411;53.016;18.632;2023-04-22T09:28:18;100749.41;;;20.03;42.00
36380;BME280;22411;53.016;18.632;2023-04-22T09:30:45;100743.53;;;20.26;41.26
36380;BME280;22411;53.016;18.632;2023-04-22T09:33:11;100743.22;;;20.37;40.40
36380;BME280;22411;53.016;18.632;2023-04-22T09:35:42;100743.59;;;20.58;39.80
36380;BME280;22411;53.016;18.632;2023-04-22T09:38:10;100742.28;;;20.95;39.45
36380;BME280;22411;53.016;18.632;2023-04-22T09:40:40;100742.22;;;21.20;38.37
36380;BME280;22411;53.016;18.632;2023-04-22T09:43:08;100737.63;;;21.13;37.63
36380;BME280;22411;53.016;18.632;2023-04-22T09:45:41;100733.31;;;21.29;36.86
36380;BME280;22411;53.016;18.632;2023-04-22T09:48:16;100727.38;;;21.43;37.13
36380;BME280;22411;53.016;18.632;2023-04-22T09:50:48;100732.50;;;21.76;36.87
36380;BME280;22411;53.016;18.632;2023-04-22T09:53:17;100721.16;;;21.67;36.16
36380;BME280;22411;53.016;18.632;2023-04-22T09:55:47;100725.22;;;21.86;36.09
36380;BME280;22411;53.016;18.632;2023-04-22T09:58:18;100722.63;;;21.78;36.22
36380;BME280;22411;53.016;18.632;2023-04-22T10:00:49;100721.13;;;21.83;36.30
36380;BME280;22411;53.016;18.632;2023-04-22T10:03:16;100715.50;;;22.17;35.56
36380;BME280;22411;53.016;18.632;2023-04-22T10:05:44;100713.72;;;22.33;35.29
36380;BME280;22411;53.016;18.632;2023-04-22T10:08:11;100716.28;;;22.64;34.49
36380;BME280;22411;53.016;18.632;2023-04-22T10:10:38;100705.88;;;22.85;35.19
36380;BME280;22411;53.016;18.632;2023-04-22T10:13:05;100707.81;;;22.91;34.33
36380;BME280;22411;53.016;18.632;2023-04-22T10:15:38;100706.06;;;22.99;34.72
36380;BME280;22411;53.016;18.632;2023-04-22T10:18:08;100704.16;;;22.92;33.28
36380;BME280;22411;53.016;18.632;2023-04-22T10:20:36;100705.81;;;23.08;32.83
36380;BME280;22411;53.016;18.632;2023-04-22T10:23:04;100707.31;;;23.26;32.42
36380;BME280;22411;53.016;18.632;2023-04-22T10:25:31;100695.88;;;23.40;31.98
36380;BME280;22411;53.016;18.632;2023-04-22T10:28:08;100690.31;;;23.35;31.81
36380;BME280;22411;53.016;18.632;2023-04-22T10:30:37;100697.78;;;23.46;32.51
36380;BME280;22411;53.016;18.632;2023-04-22T10:38:37;100699.16;;;23.93;30.98
36380;BME280;22411;53.016;18.632;2023-04-22T10:41:04;100685.25;;;23.84;30.68
36380;BME280;22411;53.016;18.632;2023-04-22T10:43:41;100687.13;;;23.69;31.69
36380;BME280;22411;53.016;18.632;2023-04-22T10:49:30;100684.78;;;24.17;29.70
36380;BME280;22411;53.016;18.632;2023-04-22T10:51:59;100680.66;;;24.36;30.01
36380;BME280;22411;53.016;18.632;2023-04-22T11:02:15;100673.88;;;24.48;29.71
36380;BME280;22411;53.016;18.632;2023-04-22T11:04:42;100671.06;;;24.56;28.62
36380;BME280;22411;53.016;18.632;2023-04-22T11:10:08;100661.75;;;24.67;27.80
36380;BME280;22411;53.016;18.632;2023-04-22T11:12:42;100667.22;;;24.87;28.12
36380;BME280;22411;53.016;18.632;2023-04-22T11:15:10;100667.25;;;25.28;27.40
36380;BME280;22411;53.016;18.632;2023-04-22T11:17:39;100663.31;;;25.65;27.25
36380;BME280;22411;53.016;18.632;2023-04-22T11:20:08;100658.53;;;25.95;26.88
36380;BME280;22411;53.016;18.632;2023-04-22T11:22:37;100658.09;;;25.92;27.10
36380;BME280;22411;53.016;18.632;2023-04-22T11:25:04;100648.09;;;25.87;27.54
36380;BME280;22411;53.016;18.632;2023-04-22T11:27:31;100651.47;;;25.68;27.49
36380;BME280;22411;53.016;18.632;2023-04-22T11:30:05;100641.16;;;25.99;27.55
36380;BME280;22411;53.016;18.632;2023-04-22T11:32:36;100646.88;;;26.10;27.50
36380;BME280;22411;53.016;18.632;2023-04-22T11:35:07;100641.41;;;26.11;27.14
36380;BME280;22411;53.016;18.632;2023-04-22T11:37:58;100637.28;;;25.95;27.01
36380;BME280;22411;53.016;18.632;2023-04-22T11:40:33;100642.22;;;26.38;26.36
36380;BME280;22411;53.016;18.632;2023-04-22T11:43:01;100630.78;;;26.51;26.32
36380;BME280;22411;53.016;18.632;2023-04-22T11:45:31;100633.38;;;26.77;26.73
36380;BME280;22411;53.016;18.632;2023-04-22T11:47:58;100639.25;;;27.06;25.72
36380;BME280;22411;53.016;18.632;2023-04-22T11:50:26;100630.66;;;27.17;25.53
36380;BME280;22411;53.016;18.632;2023-04-22T11:52:55;100625.66;;;26.56;26.66
36380;BME280;22411;53.016;18.632;2023-04-22T11:55:30;100625.88;;;26.48;26.04
36380;BME280;22411;53.016;18.632;2023-04-22T11:58:05;100623.22;;;26.48;27.16
36380;BME280;22411;53.016;18.632;2023-04-22T12:00:38;100623.41;;;26.00;26.58
36380;BME280;22411;53.016;18.632;2023-04-22T12:03:19;100620.72;;;25.80;26.96
36380;BME280;22411;53.016;18.632;2023-04-22T12:05:51;100614.38;;;25.74;27.45
36380;BME280;22411;53.016;18.632;2023-04-22T12:08:20;100620.84;;;25.59;27.09
36380;BME280;22411;53.016;18.632;2023-04-22T12:10:49;100614.31;;;25.54;27.94
36380;BME280;22411;53.016;18.632;2023-04-22T12:13:17;100611.72;;;25.74;27.47
36380;BME280;22411;53.016;18.632;2023-04-22T12:15:44;100608.28;;;25.80;27.11
36380;BME280;22411;53.016;18.632;2023-04-22T12:18:11;100620.31;;;26.10;26.88
36380;BME280;22411;53.016;18.632;2023-04-22T12:20:39;100617.66;;;26.36;27.12
36380;BME280;22411;53.016;18.632;2023-04-22T12:23:11;100606.00;;;26.70;26.72
36380;BME280;22411;53.016;18.632;2023-04-22T12:25:40;100606.72;;;27.04;26.00
36380;BME280;22411;53.016;18.632;2023-04-22T12:28:06;100600.94;;;27.27;25.08
36380;BME280;22411;53.016;18.632;2023-04-22T12:30:33;100605.03;;;27.61;24.89
36380;BME280;22411;53.016;18.632;2023-04-22T12:32:59;100606.91;;;27.60;24.72
36380;BME280;22411;53.016;18.632;2023-04-22T12:35:25;100596.44;;;27.21;24.87
36380;BME280;22411;53.016;18.632;2023-04-22T12:37:52;100597.34;;;27.01;25.39
36380;BME280;22411;53.016;18.632;2023-04-22T12:40:18;100592.69;;;27.35;24.77
36380;BME280;22411;53.016;18.632;2023-04-22T12:42:45;100589.78;;;27.81;24.96
36380;BME280;22411;53.016;18.632;2023-04-22T12:45:11;100588.28;;;27.92;23.84
36380;BME280;22411;53.016;18.632;2023-04-22T12:47:38;100584.94;;;27.72;24.75
36380;BME280;22411;53.016;18.632;2023-04-22T12:50:04;100580.41;;;27.79;24.70
36380;BME280;22411;53.016;18.632;2023-04-22T12:52:33;100577.94;;;27.39;24.57
36380;BME280;22411;53.016;18.632;2023-04-22T12:54:59;100566.44;;;27.45;24.85
36380;BME280;22411;53.016;18.632;2023-04-22T12:57:26;100564.41;;;27.41;24.25
36380;BME280;22411;53.016;18.632;2023-04-22T12:59:52;100562.44;;;27.29;25.22